Basse-Terre, Guadeloupe
Current Conditions -  °F | °C
As of 11:00 AM on Friday 24 Oct 2014 (Local Time) from TFFR Reporting Station
Scattered Clouds Scattered Clouds  
Wind Chill: 88°   Ceiling: Unl
Heat Index: 96°   Visibility: 6mi
Dew Point: 73°   Wind: 9mph
Humidity: 62%   Direction: 120°ESE
Pressure: 29.94"   Gusts: NA
Location:  16°N, 61.72°W
Report Text: TFFR 241500Z 12008KT 090V190 9999 SCT028 31/23 Q1014 NOSIG
Loading
Personal Weather Stations






























Interactive Weather Map
Tropical Storm Tracking
New forecast layout! Learn more

10-Day Weather Forecast

Advertisements
Track Severe Weather on mobile